sensor_id;sensor_type;location;lat;lon;timestamp;temperature;humidity
15959;DHT22;8078;47.822;9.402;2022-10-22T00:01:37;10.90;99.90
15959;DHT22;8078;47.822;9.402;2022-10-22T00:04:03;11.00;99.90
15959;DHT22;8078;47.822;9.402;2022-10-22T00:06:29;10.90;99.90
15959;DHT22;8078;47.822;9.402;2022-10-22T00:08:55;10.90;99.90
15959;DHT22;8078;47.822;9.402;2022-10-22T00:11:20;10.80;99.90
15959;DHT22;8078;47.822;9.402;2022-10-22T00:13:46;10.90;99.90
15959;DHT22;8078;47.822;9.402;2022-10-22T00:16:12;10.80;99.90
15959;DHT22;8078;47.822;9.402;2022-10-22T00:18:38;10.80;99.90
15959;DHT22;8078;47.822;9.402;2022-10-22T00:21:05;10.80;99.90
15959;DHT22;8078;47.822;9.402;2022-10-22T00:23:31;10.70;99.90
15959;DHT22;8078;47.822;9.402;2022-10-22T00:25:57;10.70;99.90
15959;DHT22;8078;47.822;9.402;2022-10-22T00:28:22;10.80;99.90
15959;DHT22;8078;47.822;9.402;2022-10-22T00:30:55;10.80;99.90
15959;DHT22;8078;47.822;9.402;2022-10-22T00:33:21;10.80;99.90
15959;DHT22;8078;47.822;9.402;2022-10-22T00:35:46;10.80;99.90
15959;DHT22;8078;47.822;9.402;2022-10-22T00:38:12;10.90;99.90
15959;DHT22;8078;47.822;9.402;2022-10-22T00:40:38;10.90;99.90
15959;DHT22;8078;47.822;9.402;2022-10-22T00:43:03;10.90;99.90
15959;DHT22;8078;47.822;9.402;2022-10-22T00:45:30;10.90;99.90
15959;DHT22;8078;47.822;9.402;2022-10-22T00:51:05;10.90;99.90
15959;DHT22;8078;47.822;9.402;2022-10-22T00:53:38;10.80;99.90
15959;DHT22;8078;47.822;9.402;2022-10-22T00:56:05;10.70;99.90
15959;DHT22;8078;47.822;9.402;2022-10-22T00:58:34;10.70;99.90
15959;DHT22;8078;47.822;9.402;2022-10-22T01:01:01;10.70;99.90
15959;DHT22;8078;47.822;9.402;2022-10-22T01:03:27;10.60;99.90
15959;DHT22;8078;47.822;9.402;2022-10-22T01:05:56;10.70;99.90
15959;DHT22;8078;47.822;9.402;2022-10-22T01:11:14;10.60;99.90
15959;DHT22;8078;47.822;9.402;2022-10-22T01:16:59;10.60;99.90
15959;DHT22;8078;47.822;9.402;2022-10-22T01:22:23;10.50;99.90
15959;DHT22;8078;47.822;9.402;2022-10-22T01:30:35;10.30;99.90
15959;DHT22;8078;47.822;9.402;2022-10-22T01:33:05;10.30;99.90
15959;DHT22;8078;47.822;9.402;2022-10-22T01:35:34;10.20;99.90
15959;DHT22;8078;47.822;9.402;2022-10-22T01:38:04;10.20;99.90
15959;DHT22;8078;47.822;9.402;2022-10-22T01:40:31;10.10;99.90
15959;DHT22;8078;47.822;9.402;2022-10-22T01:43:00;10.20;99.90
15959;DHT22;8078;47.822;9.402;2022-10-22T01:45:28;10.20;99.90
15959;DHT22;8078;47.822;9.402;2022-10-22T01:53:29;10.20;99.90
15959;DHT22;8078;47.822;9.402;2022-10-22T01:56:14;10.20;99.90
15959;DHT22;8078;47.822;9.402;2022-10-22T02:02:04;10.20;99.90
15959;DHT22;8078;47.822;9.402;2022-10-22T02:04:50;10.20;99.90
15959;DHT22;8078;47.822;9.402;2022-10-22T02:07:20;10.20;99.90
15959;DHT22;8078;47.822;9.402;2022-10-22T02:09:48;10.20;99.90
15959;DHT22;8078;47.822;9.402;2022-10-22T02:12:16;10.20;99.90
15959;DHT22;8078;47.822;9.402;2022-10-22T02:14:43;10.20;99.90
15959;DHT22;8078;47.822;9.402;2022-10-22T02:17:14;10.20;99.90
15959;DHT22;8078;47.822;9.402;2022-10-22T02:19:45;10.20;99.90
15959;DHT22;8078;47.822;9.402;2022-10-22T02:22:12;10.20;99.90
15959;DHT22;8078;47.822;9.402;2022-10-22T02:24:38;10.10;99.90
15959;DHT22;8078;47.822;9.402;2022-10-22T02:27:29;10.10;99.90
15959;DHT22;8078;47.822;9.402;2022-10-22T02:30:04;10.10;99.90
15959;DHT22;8078;47.822;9.402;2022-10-22T02:32:35;10.10;99.90
15959;DHT22;8078;47.822;9.402;2022-10-22T02:35:06;10.10;99.90
15959;DHT22;8078;47.822;9.402;2022-10-22T02:37:32;10.10;99.90
15959;DHT22;8078;47.822;9.402;2022-10-22T02:39:58;10.10;99.90
15959;DHT22;8078;47.822;9.402;2022-10-22T02:42:25;10.10;99.90
15959;DHT22;8078;47.822;9.402;2022-10-22T02:44:51;10.10;99.90
15959;DHT22;8078;47.822;9.402;2022-10-22T02:47:17;10.10;99.90
15959;DHT22;8078;47.822;9.402;2022-10-22T02:49:42;10.10;99.90
15959;DHT22;8078;47.822;9.402;2022-10-22T02:52:08;10.20;99.90
15959;DHT22;8078;47.822;9.402;2022-10-22T02:54:34;10.20;99.90
15959;DHT22;8078;47.822;9.402;2022-10-22T02:56:59;10.20;99.90
15959;DHT22;8078;47.822;9.402;2022-10-22T02:59:25;10.30;99.90
15959;DHT22;8078;47.822;9.402;2022-10-22T03:01:50;10.40;99.90
15959;DHT22;8078;47.822;9.402;2022-10-22T03:04:16;10.40;99.90
15959;DHT22;8078;47.822;9.402;2022-10-22T03:06:41;10.40;99.90
15959;DHT22;8078;47.822;9.402;2022-10-22T03:09:08;10.50;99.90
15959;DHT22;8078;47.822;9.402;2022-10-22T03:11:34;10.50;99.90
15959;DHT22;8078;47.822;9.402;2022-10-22T03:14:00;10.50;99.90
15959;DHT22;8078;47.822;9.402;2022-10-22T03:16:25;10.60;99.90
15959;DHT22;8078;47.822;9.402;2022-10-22T03:18:51;10.50;99.90
15959;DHT22;8078;47.822;9.402;2022-10-22T03:21:39;10.50;99.90
15959;DHT22;8078;47.822;9.402;2022-10-22T03:24:08;10.50;99.90
15959;DHT22;8078;47.822;9.402;2022-10-22T03:26:36;10.50;99.90
15959;DHT22;8078;47.822;9.402;2022-10-22T03:29:04;10.50;99.90
15959;DHT22;8078;47.822;9.402;2022-10-22T03:31:30;10.50;99.90
15959;DHT22;8078;47.822;9.402;2022-10-22T03:33:55;10.50;99.90
15959;DHT22;8078;47.822;9.402;2022-10-22T03:36:21;10.50;99.90
15959;DHT22;8078;47.822;9.402;2022-10-22T03:38:46;10.50;99.90
15959;DHT22;8078;47.822;9.402;2022-10-22T03:41:12;10.40;99.90
15959;DHT22;8078;47.822;9.402;2022-10-22T03:43:38;10.40;99.90
15959;DHT22;8078;47.822;9.402;2022-10-22T03:46:05;10.40;99.90
15959;DHT22;8078;47.822;9.402;2022-10-22T03:48:30;10.50;99.90
15959;DHT22;8078;47.822;9.402;2022-10-22T03:50:56;10.40;99.90
15959;DHT22;8078;47.822;9.402;2022-10-22T03:53:22;10.40;99.90
15959;DHT22;8078;47.822;9.402;2022-10-22T03:55:47;10.40;99.90
15959;DHT22;8078;47.822;9.402;2022-10-22T03:58:13;10.40;99.90
15959;DHT22;8078;47.822;9.402;2022-10-22T04:00:38;10.40;99.90
15959;DHT22;8078;47.822;9.402;2022-10-22T04:03:04;10.50;99.90
15959;DHT22;8078;47.822;9.402;2022-10-22T04:05:31;10.50;99.90
15959;DHT22;8078;47.822;9.402;2022-10-22T04:07:57;10.60;99.90
15959;DHT22;8078;47.822;9.402;2022-10-22T04:10:23;10.50;99.90
15959;DHT22;8078;47.822;9.402;2022-10-22T04:12:48;10.50;99.90
15959;DHT22;8078;47.822;9.402;2022-10-22T04:15:14;10.50;99.90
15959;DHT22;8078;47.822;9.402;2022-10-22T04:17:40;10.60;99.90
15959;DHT22;8078;47.822;9.402;2022-10-22T04:20:06;10.50;99.90
15959;DHT22;8078;47.822;9.402;2022-10-22T04:22:33;10.60;99.90
15959;DHT22;8078;47.822;9.402;2022-10-22T04:24:59;10.60;99.90
15959;DHT22;8078;47.822;9.402;2022-10-22T04:27:25;10.60;99.90
15959;DHT22;8078;47.822;9.402;2022-10-22T04:29:53;10.70;99.90
15959;DHT22;8078;47.822;9.402;2022-10-22T04:32:18;10.60;99.90
15959;DHT22;8078;47.822;9.402;2022-10-22T04:34:44;10.60;99.90
15959;DHT22;8078;47.822;9.402;2022-10-22T04:37:09;10.60;99.90
15959;DHT22;8078;47.822;9.402;2022-10-22T04:39:35;10.60;99.90
15959;DHT22;8078;47.822;9.402;2022-10-22T04:42:01;10.60;99.90
15959;DHT22;8078;47.822;9.402;2022-10-22T04:44:26;10.60;99.90
15959;DHT22;8078;47.822;9.402;2022-10-22T04:46:52;10.60;99.90
15959;DHT22;8078;47.822;9.402;2022-10-22T04:49:17;10.60;99.90
15959;DHT22;8078;47.822;9.402;2022-10-22T04:51:43;10.50;99.90
15959;DHT22;8078;47.822;9.402;2022-10-22T04:54:09;10.60;99.90
15959;DHT22;8078;47.822;9.402;2022-10-22T04:56:34;10.50;99.90
15959;DHT22;8078;47.822;9.402;2022-10-22T04:59:02;10.60;99.90
15959;DHT22;8078;47.822;9.402;2022-10-22T05:01:30;10.50;99.90
15959;DHT22;8078;47.822;9.402;2022-10-22T05:03:58;10.50;99.90
15959;DHT22;8078;47.822;9.402;2022-10-22T05:06:25;10.50;99.90
15959;DHT22;8078;47.822;9.402;2022-10-22T05:08:59;10.50;99.90
15959;DHT22;8078;47.822;9.402;2022-10-22T05:11:28;10.50;99.90
15959;DHT22;8078;47.822;9.402;2022-10-22T05:13:55;10.50;99.90
15959;DHT22;8078;47.822;9.402;2022-10-22T05:16:21;10.50;99.90
15959;DHT22;8078;47.822;9.402;2022-10-22T05:18:47;10.50;99.90
15959;DHT22;8078;47.822;9.402;2022-10-22T05:21:15;10.50;99.90
15959;DHT22;8078;47.822;9.402;2022-10-22T05:23:42;10.50;99.90
15959;DHT22;8078;47.822;9.402;2022-10-22T05:26:09;10.50;99.90
15959;DHT22;8078;47.822;9.402;2022-10-22T05:28:35;10.50;99.90
15959;DHT22;8078;47.822;9.402;2022-10-22T05:31:00;10.40;99.90
15959;DHT22;8078;47.822;9.402;2022-10-22T05:33:27;10.40;99.90
15959;DHT22;8078;47.822;9.402;2022-10-22T05:35:53;10.40;99.90
15959;DHT22;8078;47.822;9.402;2022-10-22T05:38:20;10.40;99.90
15959;DHT22;8078;47.822;9.402;2022-10-22T05:40:47;10.50;99.90
15959;DHT22;8078;47.822;9.402;2022-10-22T05:43:23;10.50;99.90
15959;DHT22;8078;47.822;9.402;2022-10-22T05:45:48;10.50;99.90
15959;DHT22;8078;47.822;9.402;2022-10-22T05:48:14;10.50;99.90
15959;DHT22;8078;47.822;9.402;2022-10-22T05:50:39;10.50;99.90
15959;DHT22;8078;47.822;9.402;2022-10-22T05:53:06;10.60;99.90
15959;DHT22;8078;47.822;9.402;2022-10-22T05:55:36;10.60;99.90
15959;DHT22;8078;47.822;9.402;2022-10-22T05:58:02;10.60;99.90
15959;DHT22;8078;47.822;9.402;2022-10-22T06:00:28;10.60;99.90
15959;DHT22;8078;47.822;9.402;2022-10-22T06:02:54;10.70;99.90
15959;DHT22;8078;47.822;9.402;2022-10-22T06:05:19;10.70;99.90
15959;DHT22;8078;47.822;9.402;2022-10-22T06:07:45;10.70;99.90
15959;DHT22;8078;47.822;9.402;2022-10-22T06:10:17;10.70;99.90
15959;DHT22;8078;47.822;9.402;2022-10-22T06:12:43;10.60;99.90
15959;DHT22;8078;47.822;9.402;2022-10-22T06:15:15;10.70;99.90
15959;DHT22;8078;47.822;9.402;2022-10-22T06:17:46;10.60;99.90
15959;DHT22;8078;47.822;9.402;2022-10-22T06:20:13;10.60;99.90
15959;DHT22;8078;47.822;9.402;2022-10-22T06:22:38;10.70;99.90
15959;DHT22;8078;47.822;9.402;2022-10-22T06:25:05;10.70;99.90
15959;DHT22;8078;47.822;9.402;2022-10-22T06:27:32;10.70;99.90
15959;DHT22;8078;47.822;9.402;2022-10-22T06:29:58;10.70;99.90
15959;DHT22;8078;47.822;9.402;2022-10-22T06:32:23;10.70;99.90
15959;DHT22;8078;47.822;9.402;2022-10-22T06:34:49;10.80;99.90
15959;DHT22;8078;47.822;9.402;2022-10-22T06:37:15;10.80;99.90
15959;DHT22;8078;47.822;9.402;2022-10-22T06:39:41;10.90;99.90
15959;DHT22;8078;47.822;9.402;2022-10-22T06:42:06;10.90;99.90
15959;DHT22;8078;47.822;9.402;2022-10-22T06:44:32;11.00;99.90
15959;DHT22;8078;47.822;9.402;2022-10-22T06:46:57;11.00;99.90
15959;DHT22;8078;47.822;9.402;2022-10-22T06:49:23;11.00;99.90
15959;DHT22;8078;47.822;9.402;2022-10-22T06:51:50;11.10;99.90
15959;DHT22;8078;47.822;9.402;2022-10-22T06:54:16;11.10;99.90
15959;DHT22;8078;47.822;9.402;2022-10-22T06:56:42;11.10;99.90
15959;DHT22;8078;47.822;9.402;2022-10-22T06:59:07;11.10;99.90
15959;DHT22;8078;47.822;9.402;2022-10-22T07:01:34;11.10;99.90
15959;DHT22;8078;47.822;9.402;2022-10-22T07:04:01;11.10;99.90
15959;DHT22;8078;47.822;9.402;2022-10-22T07:06:28;11.20;99.90
15959;DHT22;8078;47.822;9.402;2022-10-22T07:08:55;11.20;99.90
15959;DHT22;8078;47.822;9.402;2022-10-22T07:11:26;11.20;99.90
15959;DHT22;8078;47.822;9.402;2022-10-22T07:13:54;11.20;99.90
15959;DHT22;8078;47.822;9.402;2022-10-22T07:16:20;11.20;99.90
15959;DHT22;8078;47.822;9.402;2022-10-22T07:18:46;11.20;99.90
15959;DHT22;8078;47.822;9.402;2022-10-22T07:21:13;11.30;99.90
15959;DHT22;8078;47.822;9.402;2022-10-22T07:23:39;11.30;99.90
15959;DHT22;8078;47.822;9.402;2022-10-22T07:26:06;11.30;99.90
15959;DHT22;8078;47.822;9.402;2022-10-22T07:28:34;11.30;99.90
15959;DHT22;8078;47.822;9.402;2022-10-22T07:31:00;11.30;99.90
15959;DHT22;8078;47.822;9.402;2022-10-22T07:33:26;11.20;99.90
15959;DHT22;8078;47.822;9.402;2022-10-22T07:35:57;11.20;99.90
15959;DHT22;8078;47.822;9.402;2022-10-22T07:38:24;11.30;99.90
15959;DHT22;8078;47.822;9.402;2022-10-22T07:40:50;11.20;99.90
15959;DHT22;8078;47.822;9.402;2022-10-22T07:43:15;11.20;99.90
15959;DHT22;8078;47.822;9.402;2022-10-22T07:45:41;11.30;99.90
15959;DHT22;8078;47.822;9.402;2022-10-22T07:48:06;11.20;99.90
15959;DHT22;8078;47.822;9.402;2022-10-22T07:50:32;11.20;99.90
15959;DHT22;8078;47.822;9.402;2022-10-22T07:52:58;11.20;99.90
15959;DHT22;8078;47.822;9.402;2022-10-22T07:55:23;11.20;99.90
15959;DHT22;8078;47.822;9.402;2022-10-22T07:57:49;11.20;99.90
15959;DHT22;8078;47.822;9.402;2022-10-22T08:00:15;11.30;99.90
15959;DHT22;8078;47.822;9.402;2022-10-22T08:02:40;11.30;99.90
15959;DHT22;8078;47.822;9.402;2022-10-22T08:05:07;11.30;99.90
15959;DHT22;8078;47.822;9.402;2022-10-22T08:07:33;11.20;99.90
15959;DHT22;8078;47.822;9.402;2022-10-22T08:09:58;11.20;99.90
15959;DHT22;8078;47.822;9.402;2022-10-22T08:12:24;11.20;99.90
15959;DHT22;8078;47.822;9.402;2022-10-22T08:14:49;11.20;99.90
15959;DHT22;8078;47.822;9.402;2022-10-22T08:17:15;11.30;99.90
15959;DHT22;8078;47.822;9.402;2022-10-22T08:19:40;11.30;99.90
15959;DHT22;8078;47.822;9.402;2022-10-22T08:22:07;11.30;99.90
15959;DHT22;8078;47.822;9.402;2022-10-22T08:24:33;11.50;99.90
15959;DHT22;8078;47.822;9.402;2022-10-22T08:27:00;11.40;99.90
15959;DHT22;8078;47.822;9.402;2022-10-22T08:29:28;11.40;99.90
15959;DHT22;8078;47.822;9.402;2022-10-22T08:31:55;11.40;99.90
15959;DHT22;8078;47.822;9.402;2022-10-22T08:34:21;11.40;99.90
15959;DHT22;8078;47.822;9.402;2022-10-22T08:36:47;11.40;99.90
15959;DHT22;8078;47.822;9.402;2022-10-22T08:39:12;11.60;99.90
15959;DHT22;8078;47.822;9.402;2022-10-22T08:44:38;11.50;99.90
15959;DHT22;8078;47.822;9.402;2022-10-22T08:47:51;11.50;99.90
15959;DHT22;8078;47.822;9.402;2022-10-22T08:50:33;11.40;99.90
15959;DHT22;8078;47.822;9.402;2022-10-22T08:53:04;11.60;99.90
15959;DHT22;8078;47.822;9.402;2022-10-22T08:55:32;11.60;99.90
15959;DHT22;8078;47.822;9.402;2022-10-22T09:01:11;11.70;99.90
15959;DHT22;8078;47.822;9.402;2022-10-22T09:03:45;11.70;99.90
15959;DHT22;8078;47.822;9.402;2022-10-22T09:06:30;11.80;99.90
15959;DHT22;8078;47.822;9.402;2022-10-22T09:08:58;11.90;99.90
15959;DHT22;8078;47.822;9.402;2022-10-22T09:11:38;11.90;99.90
15959;DHT22;8078;47.822;9.402;2022-10-22T09:14:04;12.20;99.90
15959;DHT22;8078;47.822;9.402;2022-10-22T09:16:37;12.40;99.90
15959;DHT22;8078;47.822;9.402;2022-10-22T09:19:17;12.50;99.90
15959;DHT22;8078;47.822;9.402;2022-10-22T09:22:14;12.60;99.90
15959;DHT22;8078;47.822;9.402;2022-10-22T09:24:47;12.60;99.90
15959;DHT22;8078;47.822;9.402;2022-10-22T09:27:15;12.80;99.90
15959;DHT22;8078;47.822;9.402;2022-10-22T09:29:42;12.80;99.90
15959;DHT22;8078;47.822;9.402;2022-10-22T09:32:09;12.70;99.90
15959;DHT22;8078;47.822;9.402;2022-10-22T09:34:34;12.80;99.90
15959;DHT22;8078;47.822;9.402;2022-10-22T09:37:06;12.80;99.90
15959;DHT22;8078;47.822;9.402;2022-10-22T09:39:38;12.70;99.90
15959;DHT22;8078;47.822;9.402;2022-10-22T09:42:05;12.80;99.90
15959;DHT22;8078;47.822;9.402;2022-10-22T09:44:35;12.80;99.90
15959;DHT22;8078;47.822;9.402;2022-10-22T09:47:27;13.00;99.90
15959;DHT22;8078;47.822;9.402;2022-10-22T09:50:26;13.10;99.90
15959;DHT22;8078;47.822;9.402;2022-10-22T09:53:19;13.10;99.90
15959;DHT22;8078;47.822;9.402;2022-10-22T09:55:51;12.90;99.90
15959;DHT22;8078;47.822;9.402;2022-10-22T09:58:17;12.80;99.90
15959;DHT22;8078;47.822;9.402;2022-10-22T10:00:46;12.70;99.90
15959;DHT22;8078;47.822;9.402;2022-10-22T10:03:17;12.70;99.90
15959;DHT22;8078;47.822;9.402;2022-10-22T10:05:47;12.70;99.90
15959;DHT22;8078;47.822;9.402;2022-10-22T10:08:15;12.70;99.90
15959;DHT22;8078;47.822;9.402;2022-10-22T10:10:54;12.70;99.90
15959;DHT22;8078;47.822;9.402;2022-10-22T10:16:06;12.70;99.90
15959;DHT22;8078;47.822;9.402;2022-10-22T10:18:51;12.90;99.90
15959;DHT22;8078;47.822;9.402;2022-10-22T10:21:33;12.80;99.90
15959;DHT22;8078;47.822;9.402;2022-10-22T10:26:57;13.00;99.90
15959;DHT22;8078;47.822;9.402;2022-10-22T10:32:46;13.10;99.90
15959;DHT22;8078;47.822;9.402;2022-10-22T10:41:22;13.30;99.90
15959;DHT22;8078;47.822;9.402;2022-10-22T10:44:01;13.50;99.90
15959;DHT22;8078;47.822;9.402;2022-10-22T10:49:34;14.20;99.90
15959;DHT22;8078;47.822;9.402;2022-10-22T10:52:10;14.20;99.90
15959;DHT22;8078;47.822;9.402;2022-10-22T10:57:31;13.80;99.90
15959;DHT22;8078;47.822;9.402;2022-10-22T11:00:11;13.70;99.90
15959;DHT22;8078;47.822;9.402;2022-10-22T11:10:53;14.00;99.90
15959;DHT22;8078;47.822;9.402;2022-10-22T11:16:04;14.40;99.90
15959;DHT22;8078;47.822;9.402;2022-10-22T11:18:37;14.70;99.90
15959;DHT22;8078;47.822;9.402;2022-10-22T11:22:14;14.30;99.90
15959;DHT22;8078;47.822;9.402;2022-10-22T11:24:25;13.90;99.90
15959;DHT22;8078;47.822;9.402;2022-10-22T11:26:56;13.70;99.90
15959;DHT22;8078;47.822;9.402;2022-10-22T11:29:29;13.90;99.90
15959;DHT22;8078;47.822;9.402;2022-10-22T11:31:55;14.30;99.90
15959;DHT22;8078;47.822;9.402;2022-10-22T11:34:26;14.60;99.90
15959;DHT22;8078;47.822;9.402;2022-10-22T11:36:53;14.40;99.90
15959;DHT22;8078;47.822;9.402;2022-10-22T11:40:13;14.40;99.90
15959;DHT22;8078;47.822;9.402;2022-10-22T11:42:48;14.40;99.90
15959;DHT22;8078;47.822;9.402;2022-10-22T11:50:54;14.90;99.90
15959;DHT22;8078;47.822;9.402;2022-10-22T11:53:35;14.70;99.90
15959;DHT22;8078;47.822;9.402;2022-10-22T12:06:19;15.00;99.90
15959;DHT22;8078;47.822;9.402;2022-10-22T12:17:07;16.70;99.90
15959;DHT22;8078;47.822;9.402;2022-10-22T12:19:38;16.80;99.90
15959;DHT22;8078;47.822;9.402;2022-10-22T12:22:12;16.60;99.90
15959;DHT22;8078;47.822;9.402;2022-10-22T12:24:48;16.70;99.90
15959;DHT22;8078;47.822;9.402;2022-10-22T12:27:37;16.80;99.90
15959;DHT22;8078;47.822;9.402;2022-10-22T12:30:21;16.90;99.90
15959;DHT22;8078;47.822;9.402;2022-10-22T12:32:54;16.30;99.90
15959;DHT22;8078;47.822;9.402;2022-10-22T12:35:23;16.20;99.90
15959;DHT22;8078;47.822;9.402;2022-10-22T12:37:57;16.20;99.90
15959;DHT22;8078;47.822;9.402;2022-10-22T12:40:30;16.90;99.90
15959;DHT22;8078;47.822;9.402;2022-10-22T12:43:11;16.80;99.90
15959;DHT22;8078;47.822;9.402;2022-10-22T12:45:38;16.20;99.90
15959;DHT22;8078;47.822;9.402;2022-10-22T12:48:24;16.10;99.90
15959;DHT22;8078;47.822;9.402;2022-10-22T12:50:57;15.90;99.90
15959;DHT22;8078;47.822;9.402;2022-10-22T12:53:31;15.40;99.90
15959;DHT22;8078;47.822;9.402;2022-10-22T12:56:06;15.10;99.90
15959;DHT22;8078;47.822;9.402;2022-10-22T12:58:51;14.90;99.90
15959;DHT22;8078;47.822;9.402;2022-10-22T13:01:17;14.90;99.90
15959;DHT22;8078;47.822;9.402;2022-10-22T13:03:49;15.10;99.90
15959;DHT22;8078;47.822;9.402;2022-10-22T13:08:44;15.30;99.90
15959;DHT22;8078;47.822;9.402;2022-10-22T13:11:19;16.20;99.90
15959;DHT22;8078;47.822;9.402;2022-10-22T13:13:45;16.50;99.90
15959;DHT22;8078;47.822;9.402;2022-10-22T13:16:24;16.80;99.90
15959;DHT22;8078;47.822;9.402;2022-10-22T13:18:52;16.70;99.90
15959;DHT22;8078;47.822;9.402;2022-10-22T13:21:33;16.40;99.90
15959;DHT22;8078;47.822;9.402;2022-10-22T13:24:01;16.10;99.90
15959;DHT22;8078;47.822;9.402;2022-10-22T13:26:35;15.60;99.90
15959;DHT22;8078;47.822;9.402;2022-10-22T13:29:08;15.10;99.90
15959;DHT22;8078;47.822;9.402;2022-10-22T13:31:35;14.90;99.90
15959;DHT22;8078;47.822;9.402;2022-10-22T13:34:04;14.90;99.90
15959;DHT22;8078;47.822;9.402;2022-10-22T13:36:34;15.00;99.90
15959;DHT22;8078;47.822;9.402;2022-10-22T13:39:00;15.10;99.90
15959;DHT22;8078;47.822;9.402;2022-10-22T13:41:30;15.30;99.90
15959;DHT22;8078;47.822;9.402;2022-10-22T13:43:57;15.40;99.90
15959;DHT22;8078;47.822;9.402;2022-10-22T13:46:24;15.50;99.90
15959;DHT22;8078;47.822;9.402;2022-10-22T13:48:53;15.90;99.90
15959;DHT22;8078;47.822;9.402;2022-10-22T13:51:27;15.70;99.90
15959;DHT22;8078;47.822;9.402;2022-10-22T13:53:54;15.50;99.90
15959;DHT22;8078;47.822;9.402;2022-10-22T13:56:20;15.30;99.90
15959;DHT22;8078;47.822;9.402;2022-10-22T13:58:46;15.40;99.90
15959;DHT22;8078;47.822;9.402;2022-10-22T14:01:21;15.60;99.90
15959;DHT22;8078;47.822;9.402;2022-10-22T14:03:49;16.10;99.90
15959;DHT22;8078;47.822;9.402;2022-10-22T14:06:17;16.50;99.90
15959;DHT22;8078;47.822;9.402;2022-10-22T14:08:45;17.10;99.90
15959;DHT22;8078;47.822;9.402;2022-10-22T14:11:11;17.70;99.90
15959;DHT22;8078;47.822;9.402;2022-10-22T14:13:37;17.60;99.90
15959;DHT22;8078;47.822;9.402;2022-10-22T14:16:05;17.80;99.90
15959;DHT22;8078;47.822;9.402;2022-10-22T14:18:31;18.30;99.90
15959;DHT22;8078;47.822;9.402;2022-10-22T14:21:03;17.80;99.90
15959;DHT22;8078;47.822;9.402;2022-10-22T14:23:32;17.70;99.90
15959;DHT22;8078;47.822;9.402;2022-10-22T14:25:59;17.50;99.90
15959;DHT22;8078;47.822;9.402;2022-10-22T14:28:25;17.60;99.90
15959;DHT22;8078;47.822;9.402;2022-10-22T14:30:52;17.70;99.90
15959;DHT22;8078;47.822;9.402;2022-10-22T14:33:29;18.00;99.90
15959;DHT22;8078;47.822;9.402;2022-10-22T14:35:55;17.80;99.90
15959;DHT22;8078;47.822;9.402;2022-10-22T14:38:21;18.80;99.90
15959;DHT22;8078;47.822;9.402;2022-10-22T14:40:47;18.30;99.90
15959;DHT22;8078;47.822;9.402;2022-10-22T14:43:25;17.70;99.90
15959;DHT22;8078;47.822;9.402;2022-10-22T14:45:52;17.60;99.90
15959;DHT22;8078;47.822;9.402;2022-10-22T14:48:22;17.30;99.90
15959;DHT22;8078;47.822;9.402;2022-10-22T14:50:49;17.20;99.90
15959;DHT22;8078;47.822;9.402;2022-10-22T14:53:15;16.60;99.90
15959;DHT22;8078;47.822;9.402;2022-10-22T14:55:42;16.40;99.90
15959;DHT22;8078;47.822;9.402;2022-10-22T14:58:10;16.60;99.90
15959;DHT22;8078;47.822;9.402;2022-10-22T15:00:40;17.10;99.90
15959;DHT22;8078;47.822;9.402;2022-10-22T15:03:07;17.30;99.90
15959;DHT22;8078;47.822;9.402;2022-10-22T15:05:33;17.50;99.90
15959;DHT22;8078;47.822;9.402;2022-10-22T15:08:02;17.50;99.90
15959;DHT22;8078;47.822;9.402;2022-10-22T15:10:28;17.50;99.90
15959;DHT22;8078;47.822;9.402;2022-10-22T15:12:53;17.40;99.90
15959;DHT22;8078;47.822;9.402;2022-10-22T15:15:19;17.20;99.90
15959;DHT22;8078;47.822;9.402;2022-10-22T15:17:45;17.20;99.90
15959;DHT22;8078;47.822;9.402;2022-10-22T15:20:10;17.50;99.90
15959;DHT22;8078;47.822;9.402;2022-10-22T15:22:36;17.30;99.90
15959;DHT22;8078;47.822;9.402;2022-10-22T15:25:04;17.20;99.90
15959;DHT22;8078;47.822;9.402;2022-10-22T15:27:30;17.20;99.90
15959;DHT22;8078;47.822;9.402;2022-10-22T15:29:55;17.20;99.90
15959;DHT22;8078;47.822;9.402;2022-10-22T15:32:26;17.60;99.90
15959;DHT22;8078;47.822;9.402;2022-10-22T15:34:54;17.80;99.90
15959;DHT22;8078;47.822;9.402;2022-10-22T15:37:20;18.10;99.90
15959;DHT22;8078;47.822;9.402;2022-10-22T15:39:46;18.60;99.90
15959;DHT22;8078;47.822;9.402;2022-10-22T15:42:12;19.00;99.90
15959;DHT22;8078;47.822;9.402;2022-10-22T15:44:39;19.00;99.90
15959;DHT22;8078;47.822;9.402;2022-10-22T15:47:05;18.30;99.90
15959;DHT22;8078;47.822;9.402;2022-10-22T15:49:33;17.50;99.90
15959;DHT22;8078;47.822;9.402;2022-10-22T15:51:59;16.70;99.90
15959;DHT22;8078;47.822;9.402;2022-10-22T15:54:27;16.10;99.90
15959;DHT22;8078;47.822;9.402;2022-10-22T15:56:54;15.70;99.90
15959;DHT22;8078;47.822;9.402;2022-10-22T15:59:19;15.40;99.90
15959;DHT22;8078;47.822;9.402;2022-10-22T16:01:45;15.20;99.90
15959;DHT22;8078;47.822;9.402;2022-10-22T16:04:12;14.90;99.90
15959;DHT22;8078;47.822;9.402;2022-10-22T16:06:40;14.70;99.90
15959;DHT22;8078;47.822;9.402;2022-10-22T16:09:08;14.70;99.90
15959;DHT22;8078;47.822;9.402;2022-10-22T16:11:35;14.50;99.90
15959;DHT22;8078;47.822;9.402;2022-10-22T16:14:01;14.40;99.90
15959;DHT22;8078;47.822;9.402;2022-10-22T16:16:28;14.40;99.90
15959;DHT22;8078;47.822;9.402;2022-10-22T16:18:54;14.30;99.90
15959;DHT22;8078;47.822;9.402;2022-10-22T16:21:21;14.20;99.90
15959;DHT22;8078;47.822;9.402;2022-10-22T16:23:48;14.10;99.90
15959;DHT22;8078;47.822;9.402;2022-10-22T16:26:14;14.00;99.90
15959;DHT22;8078;47.822;9.402;2022-10-22T16:28:41;13.90;99.90
15959;DHT22;8078;47.822;9.402;2022-10-22T16:31:09;13.90;99.90
15959;DHT22;8078;47.822;9.402;2022-10-22T16:33:36;13.80;99.90
15959;DHT22;8078;47.822;9.402;2022-10-22T16:36:04;13.80;99.90
15959;DHT22;8078;47.822;9.402;2022-10-22T16:38:30;13.80;99.90
15959;DHT22;8078;47.822;9.402;2022-10-22T16:41:09;13.80;99.90
15959;DHT22;8078;47.822;9.402;2022-10-22T16:43:35;13.80;99.90
15959;DHT22;8078;47.822;9.402;2022-10-22T16:46:01;13.80;99.90
15959;DHT22;8078;47.822;9.402;2022-10-22T16:48:27;13.80;99.90
15959;DHT22;8078;47.822;9.402;2022-10-22T16:50:52;13.60;99.90
15959;DHT22;8078;47.822;9.402;2022-10-22T16:53:18;13.70;99.90
15959;DHT22;8078;47.822;9.402;2022-10-22T16:55:43;13.70;99.90
15959;DHT22;8078;47.822;9.402;2022-10-22T16:58:09;13.80;99.90
15959;DHT22;8078;47.822;9.402;2022-10-22T17:00:34;13.80;99.90
15959;DHT22;8078;47.822;9.402;2022-10-22T17:03:00;13.80;99.90
15959;DHT22;8078;47.822;9.402;2022-10-22T17:05:26;13.80;99.90
15959;DHT22;8078;47.822;9.402;2022-10-22T17:07:51;13.80;99.90
15959;DHT22;8078;47.822;9.402;2022-10-22T17:10:18;13.80;99.90
15959;DHT22;8078;47.822;9.402;2022-10-22T17:12:46;13.80;99.90
15959;DHT22;8078;47.822;9.402;2022-10-22T17:15:12;13.70;99.90
15959;DHT22;8078;47.822;9.402;2022-10-22T17:17:38;13.70;99.90
15959;DHT22;8078;47.822;9.402;2022-10-22T17:20:04;13.60;99.90
15959;DHT22;8078;47.822;9.402;2022-10-22T17:22:30;13.60;99.90
15959;DHT22;8078;47.822;9.402;2022-10-22T17:25:35;13.50;99.90
15959;DHT22;8078;47.822;9.402;2022-10-22T17:28:01;13.50;99.90